createdAt,value
2019-03-03T00:02:07.052Z,64.30
2019-03-03T00:07:08.799Z,60.30
2019-03-03T00:12:10.956Z,63.00
2019-03-03T00:17:12.832Z,38.60
2019-03-03T00:22:14.636Z,67.47
2019-03-03T00:27:16.392Z,36.87
2019-03-03T00:32:19.240Z,58.53
2019-03-03T00:37:23.597Z,38.43
2019-03-03T00:42:39.501Z,53.03
2019-03-03T00:47:56.086Z,40.63
2019-03-03T00:52:59.626Z,68.33
2019-03-03T00:58:18.537Z,63.87
2019-03-03T01:03:25.258Z,90.10
2019-03-03T01:08:44.555Z,88.23
2019-03-03T01:14:00.518Z,90.00
2019-03-03T01:19:16.139Z,102.30
2019-03-03T01:24:38.426Z,92.30
2019-03-03T01:29:40.163Z,98.63
2019-03-03T01:34:41.919Z,71.00
2019-03-03T01:39:43.648Z,69.23
2019-03-03T01:44:45.722Z,87.77
2019-03-03T01:49:47.625Z,79.50
2019-03-03T01:54:49.418Z,78.67
2019-03-03T01:59:51.634Z,63.70
2019-03-03T02:04:55.558Z,82.53
2019-03-03T02:09:57.395Z,78.20
2019-03-03T02:14:59.091Z,56.03
2019-03-03T02:20:00.751Z,67.53
2019-03-03T02:25:06.957Z,76.27
2019-03-03T02:30:15.196Z,86.33
2019-03-03T02:35:16.940Z,82.33
2019-03-03T02:40:22.360Z,69.83
2019-03-03T02:45:27.288Z,76.67
2019-03-03T02:50:29.132Z,91.23
2019-03-03T02:55:30.934Z,88.90
2019-03-03T03:00:34.376Z,96.40
2019-03-03T03:05:38.051Z,69.70
2019-03-03T03:10:52.278Z,60.83
2019-03-03T03:15:58.837Z,73.93
2019-03-03T03:21:05.490Z,61.90
2019-03-03T03:26:12.074Z,68.70
2019-03-03T03:31:18.910Z,70.00
2019-03-03T03:36:22.559Z,83.83
2019-03-03T03:41:30.530Z,80.73
2019-03-03T03:46:38.453Z,67.33
2019-03-03T03:51:48.660Z,72.43
2019-03-03T03:56:55.392Z,81.40
2019-03-03T04:02:15.623Z,73.43
2019-03-03T04:07:19.165Z,52.10
2019-03-03T04:12:39.809Z,86.17
2019-03-03T04:17:49.072Z,60.90
2019-03-03T04:22:55.518Z,61.43
2019-03-03T04:28:18.000Z,42.30
2019-03-03T04:33:21.890Z,40.87
2019-03-03T04:38:25.358Z,55.93
2019-03-03T04:43:46.134Z,48.17
2019-03-03T04:48:50.122Z,40.80
2019-03-03T04:54:09.361Z,39.53
2019-03-03T04:59:19.137Z,34.10
2019-03-03T05:04:31.588Z,46.50
2019-03-03T05:09:35.402Z,48.87
2019-03-03T05:14:39.402Z,43.30
2019-03-03T05:19:42.952Z,48.47
2019-03-03T05:24:46.415Z,31.47
2019-03-03T05:29:48.120Z,40.73
2019-03-03T05:34:50.201Z,34.13
2019-03-03T05:39:52.708Z,42.23
2019-03-03T05:44:54.966Z,83.67
2019-03-03T05:49:57.253Z,75.27
2019-03-03T05:55:00.428Z,83.60
2019-03-03T06:00:03.427Z,98.07
2019-03-03T06:05:06.337Z,72.80
2019-03-03T06:10:08.546Z,116.87
2019-03-03T06:15:13.175Z,69.30
2019-03-03T06:20:14.815Z,86.33
2019-03-03T06:25:17.959Z,87.10
2019-03-03T06:30:19.649Z,83.90
2019-03-03T06:35:21.346Z,78.70
2019-03-03T06:40:23.459Z,85.43
2019-03-03T06:45:25.160Z,77.93
2019-03-03T06:50:26.961Z,75.10
2019-03-03T06:55:29.367Z,108.77
2019-03-03T07:00:31.170Z,112.27
2019-03-03T07:05:32.943Z,125.97
2019-03-03T07:10:34.734Z,123.63
2019-03-03T07:15:36.526Z,116.00
2019-03-03T07:20:38.337Z,142.13
2019-03-03T07:25:40.539Z,120.23
2019-03-03T07:30:42.545Z,126.23
2019-03-03T07:35:44.269Z,119.90
2019-03-03T07:40:46.533Z,141.97
2019-03-03T07:45:48.388Z,118.10
2019-03-03T07:50:50.060Z,151.77
2019-03-03T07:55:52.516Z,155.40
2019-03-03T08:00:54.183Z,149.30
2019-03-03T08:05:55.812Z,160.67
2019-03-03T08:10:57.851Z,131.43
2019-03-03T08:15:59.483Z,130.30
2019-03-03T08:21:01.152Z,132.23
2019-03-03T08:26:03.293Z,98.13
2019-03-03T08:31:05.049Z,141.83
2019-03-03T08:36:06.709Z,136.40
2019-03-03T08:41:08.358Z,131.67
2019-03-03T08:46:24.640Z,117.17
2019-03-03T08:51:28.509Z,123.20
2019-03-03T08:56:32.131Z,126.97
2019-03-03T09:01:44.765Z,114.43
2019-03-03T09:06:57.026Z,128.03
2019-03-03T09:12:00.646Z,63.33
2019-03-03T09:17:04.874Z,107.50
2019-03-03T09:22:13.917Z,109.10
2019-03-03T09:27:20.527Z,80.57
2019-03-03T09:32:42.075Z,68.93
2019-03-03T09:38:02.188Z,68.73
2019-03-03T09:43:17.802Z,73.90
2019-03-03T09:48:27.559Z,57.40
2019-03-03T09:53:37.843Z,50.40
2019-03-03T09:58:47.291Z,84.07
2019-03-03T10:04:05.844Z,89.00
2019-03-03T10:09:15.562Z,89.00
2019-03-03T10:14:24.961Z,64.87
2019-03-03T10:19:43.551Z,89.13
2019-03-03T10:24:47.515Z,76.07
2019-03-03T10:29:55.417Z,78.50
2019-03-03T10:35:02.114Z,71.83
2019-03-03T10:40:07.698Z,58.80
2019-03-03T10:45:20.011Z,63.90
2019-03-03T10:50:38.972Z,67.60
2019-03-03T10:55:43.804Z,73.60
2019-03-03T11:01:00.847Z,66.57
2019-03-03T11:06:12.348Z,60.00
2019-03-03T11:11:16.268Z,67.33
2019-03-03T11:16:19.739Z,63.57
2019-03-03T11:21:23.357Z,70.53
2019-03-03T11:26:28.046Z,61.47
2019-03-03T11:31:31.773Z,70.00
2019-03-03T11:36:37.174Z,64.17
2019-03-03T11:41:44.634Z,63.73
2019-03-03T11:47:03.254Z,62.20
2019-03-03T11:52:21.030Z,50.07
2019-03-03T11:57:29.910Z,43.93
2019-03-03T12:02:36.859Z,47.23
2019-03-03T12:07:58.735Z,49.37
2019-03-03T12:13:10.278Z,64.87
2019-03-03T12:18:18.467Z,61.53
2019-03-03T12:23:28.182Z,52.27
2019-03-03T12:28:41.318Z,34.07
2019-03-03T12:33:48.147Z,57.33
2019-03-03T12:38:54.647Z,33.17
2019-03-03T12:44:01.219Z,52.80
2019-03-03T12:49:04.890Z,58.13
2019-03-03T12:54:08.459Z,44.53
2019-03-03T12:59:12.942Z,56.63
2019-03-03T13:04:23.380Z,52.23
2019-03-03T13:09:42.877Z,62.27
2019-03-03T13:14:51.669Z,46.40
2019-03-03T13:20:10.479Z,49.87
2019-03-03T13:25:25.488Z,59.47
2019-03-03T13:30:32.103Z,54.50
2019-03-03T13:35:48.255Z,29.37
2019-03-03T13:40:52.693Z,40.77
2019-03-03T13:45:57.826Z,43.90
2019-03-03T13:51:00.196Z,48.63
2019-03-03T13:56:02.268Z,43.73
2019-03-03T14:01:05.847Z,42.30
2019-03-03T14:06:08.234Z,52.73
2019-03-03T14:11:10.260Z,48.47
2019-03-03T14:16:12.060Z,45.33
2019-03-03T14:21:13.750Z,48.60
2019-03-03T14:26:15.366Z,49.00
2019-03-03T14:31:17.362Z,58.43
2019-03-03T14:36:18.962Z,67.17
2019-03-03T14:41:21.148Z,37.53
2019-03-03T14:46:23.450Z,45.77
2019-03-03T14:51:28.619Z,58.33
2019-03-03T14:56:33.073Z,48.30
2019-03-03T15:01:37.928Z,48.40
2019-03-03T15:06:39.903Z,48.27
2019-03-03T15:11:42.527Z,41.70
2019-03-03T15:16:44.487Z,59.53
2019-03-03T15:21:50.254Z,38.60
2019-03-03T15:26:55.570Z,35.73
2019-03-03T15:31:59.871Z,44.60
2019-03-03T15:37:05.406Z,36.33
2019-03-03T15:42:07.889Z,33.07
2019-03-03T15:47:09.699Z,37.20
2019-03-03T15:52:11.436Z,20.77
2019-03-03T15:57:13.420Z,26.80
2019-03-03T16:02:32.431Z,13.90
2019-03-03T16:07:34.299Z,33.73
2019-03-03T16:12:36.517Z,31.43
2019-03-03T16:17:38.726Z,22.67
2019-03-03T16:22:40.510Z,29.23
2019-03-03T16:27:42.914Z,46.13
2019-03-03T16:32:45.302Z,38.03
2019-03-03T16:37:47.191Z,44.20
2019-03-03T16:42:49.420Z,26.13
2019-03-03T16:47:51.597Z,43.50
2019-03-03T16:52:53.353Z,40.30
2019-03-03T16:57:55.160Z,34.93
2019-03-03T17:02:56.933Z,34.20
2019-03-03T17:07:58.841Z,26.10
2019-03-03T17:13:02.038Z,35.30
2019-03-03T17:18:11.071Z,31.33
2019-03-03T17:23:12.881Z,14.50
2019-03-03T17:28:14.562Z,14.83
2019-03-03T17:33:16.459Z,31.00
2019-03-03T17:38:18.252Z,25.60
2019-03-03T17:43:22.413Z,19.67
2019-03-03T17:48:24.310Z,28.47
2019-03-03T17:53:32.675Z,23.23
2019-03-03T17:58:35.243Z,11.03
2019-03-03T18:03:39.490Z,24.63
2019-03-03T18:08:41.463Z,21.63
2019-03-03T18:13:43.858Z,15.37
2019-03-03T18:18:46.108Z,20.90
2019-03-03T18:23:48.506Z,8.93
2019-03-03T18:28:50.857Z,11.33
2019-03-03T18:33:53.288Z,10.20
2019-03-03T18:38:55.713Z,13.03
2019-03-03T18:43:58.239Z,20.53
2019-03-03T18:49:00.319Z,6.63
2019-03-03T18:54:02.844Z,8.63
2019-03-03T18:59:05.221Z,7.53
2019-03-03T19:04:08.142Z,20.53
2019-03-03T19:09:12.174Z,9.40
2019-03-03T19:14:14.366Z,10.33
2019-03-03T19:19:16.911Z,10.20
2019-03-03T19:24:19.061Z,4.57
2019-03-03T19:29:21.234Z,4.17
2019-03-03T19:34:24.885Z,9.17
2019-03-03T19:39:27.398Z,9.70
2019-03-03T19:44:31.383Z,4.53
2019-03-03T19:49:34.105Z,7.67
2019-03-03T19:54:36.997Z,4.43
2019-03-03T19:59:40.956Z,5.67
2019-03-03T20:04:48.858Z,8.40
2019-03-03T20:09:54.990Z,8.37
2019-03-03T20:14:56.801Z,12.17
2019-03-03T20:19:58.885Z,26.97
2019-03-03T20:25:00.560Z,36.63
2019-03-03T20:30:04.492Z,27.13
2019-03-03T20:35:08.702Z,36.83
2019-03-03T20:40:14.582Z,48.87
2019-03-03T20:45:21.816Z,38.27
2019-03-03T20:50:25.089Z,69.90
2019-03-03T20:55:30.977Z,54.23
2019-03-03T21:00:33.482Z,57.03
2019-03-03T21:05:35.269Z,67.23
2019-03-03T21:10:39.267Z,77.00
2019-03-03T21:15:40.999Z,74.03
2019-03-03T21:20:43.053Z,88.50
2019-03-03T21:25:44.856Z,72.37
2019-03-03T21:30:46.537Z,73.40
2019-03-03T21:35:48.162Z,97.17
2019-03-03T21:40:49.803Z,96.60
2019-03-03T21:45:51.442Z,89.57
2019-03-03T21:50:53.461Z,107.47
2019-03-03T21:55:55.216Z,88.73
2019-03-03T22:00:56.867Z,71.70
2019-03-03T22:05:58.892Z,89.33
2019-03-03T22:11:04.550Z,95.63
2019-03-03T22:16:06.196Z,83.23
2019-03-03T22:21:07.888Z,83.00
2019-03-03T22:26:09.500Z,68.00
2019-03-03T22:31:11.235Z,79.20
2019-03-03T22:36:12.930Z,66.03
2019-03-03T22:41:14.815Z,55.43
2019-03-03T22:46:16.542Z,60.10
2019-03-03T22:51:18.566Z,57.50
2019-03-03T22:56:20.177Z,50.53
2019-03-03T23:01:22.032Z,62.20
2019-03-03T23:06:36.066Z,49.97
2019-03-03T23:11:44.326Z,32.47
2019-03-03T23:17:12.718Z,34.83
2019-03-03T23:22:47.614Z,25.13
2019-03-03T23:27:49.416Z,32.10
2019-03-03T23:32:51.733Z,38.20
2019-03-03T23:37:53.447Z,16.60
2019-03-03T23:42:55.156Z,18.03
2019-03-03T23:47:56.984Z,26.30
2019-03-03T23:52:58.705Z,25.30
2019-03-03T23:58:00.513Z,11.97
